createdAt,value
2023-03-17T00:01:44.843Z,71.82
2023-03-17T00:04:13.048Z,71.63
2023-03-17T00:06:42.548Z,71.88
2023-03-17T00:09:14.707Z,72.04
2023-03-17T00:11:43.064Z,72.09
2023-03-17T00:14:10.843Z,72.04
2023-03-17T00:16:40.590Z,72.21
2023-03-17T00:19:08.441Z,72.67
2023-03-17T00:21:36.691Z,72.88
2023-03-17T00:24:07.353Z,72.92
2023-03-17T00:26:35.126Z,72.89
2023-03-17T00:29:02.865Z,73.16
2023-03-17T00:31:31.599Z,72.82
2023-03-17T00:34:00.503Z,72.54
2023-03-17T00:36:30.700Z,72.58
2023-03-17T00:38:58.887Z,72.58
2023-03-17T00:41:29.551Z,72.31
2023-03-17T00:43:57.687Z,71.93
2023-03-17T00:46:28.756Z,71.64
2023-03-17T00:48:56.737Z,71.50
2023-03-17T00:51:24.547Z,71.24
2023-03-17T00:53:52.806Z,71.27
2023-03-17T00:56:21.812Z,71.34
2023-03-17T00:58:50.890Z,71.39
2023-03-17T01:01:19.858Z,70.98
2023-03-17T01:03:49.648Z,71.19
2023-03-17T01:06:17.925Z,71.01
2023-03-17T01:08:46.570Z,71.40
2023-03-17T01:11:17.773Z,71.40
2023-03-17T01:13:45.741Z,71.94
2023-03-17T01:16:15.561Z,71.77
2023-03-17T01:18:44.010Z,71.31
2023-03-17T01:21:12.648Z,71.63
2023-03-17T01:23:40.398Z,71.85
2023-03-17T01:26:08.064Z,71.36
2023-03-17T01:28:36.065Z,71.26
2023-03-17T01:31:05.025Z,70.76
2023-03-17T01:33:35.176Z,70.93
2023-03-17T01:36:03.088Z,71.03
2023-03-17T01:38:31.266Z,70.73
2023-03-17T01:40:59.562Z,71.09
2023-03-17T01:43:29.549Z,70.88
2023-03-17T01:46:20.756Z,70.72
2023-03-17T01:48:54.222Z,70.90
2023-03-17T01:51:27.517Z,70.91
2023-03-17T01:53:56.218Z,71.13
2023-03-17T01:56:24.699Z,71.37
2023-03-17T01:58:56.145Z,71.03
2023-03-17T02:01:30.697Z,71.34
2023-03-17T02:04:00.884Z,71.06
2023-03-17T02:06:29.534Z,71.03
2023-03-17T02:08:57.427Z,71.21
2023-03-17T02:11:25.321Z,71.33
2023-03-17T02:13:53.661Z,71.40
2023-03-17T02:16:22.346Z,71.56
2023-03-17T02:18:50.082Z,71.51
2023-03-17T02:21:38.313Z,71.55
2023-03-17T02:24:10.719Z,71.83
2023-03-17T02:26:39.542Z,71.69
2023-03-17T02:29:07.376Z,71.71
2023-03-17T02:31:35.783Z,71.77
2023-03-17T02:34:03.703Z,71.66
2023-03-17T02:36:32.836Z,71.45
2023-03-17T02:39:01.045Z,71.61
2023-03-17T02:41:29.324Z,71.45
2023-03-17T02:43:57.106Z,71.28
2023-03-17T02:46:24.915Z,71.58
2023-03-17T02:48:52.787Z,71.64
2023-03-17T02:51:20.585Z,71.76
2023-03-17T02:53:49.669Z,71.70
2023-03-17T02:56:17.420Z,71.77
2023-03-17T02:58:45.487Z,71.94
2023-03-17T03:01:14.151Z,71.99
2023-03-17T03:03:41.956Z,72.33
2023-03-17T03:06:09.796Z,72.22
2023-03-17T03:08:37.805Z,72.29
2023-03-17T03:11:07.121Z,72.37
2023-03-17T03:13:34.988Z,72.45
2023-03-17T03:16:02.680Z,72.70
2023-03-17T03:18:30.565Z,72.72
2023-03-17T03:20:58.251Z,72.85
2023-03-17T03:23:26.003Z,72.86
2023-03-17T03:25:53.766Z,73.04
2023-03-17T03:28:23.063Z,72.94
2023-03-17T03:30:51.145Z,73.82
2023-03-17T03:33:19.110Z,73.45
2023-03-17T03:35:46.866Z,73.89
2023-03-17T03:38:14.694Z,73.97
2023-03-17T03:40:42.414Z,73.93
2023-03-17T03:43:21.867Z,74.16
2023-03-17T03:45:52.543Z,74.39
2023-03-17T03:48:20.475Z,74.39
2023-03-17T03:50:48.359Z,74.45
2023-03-17T03:53:16.471Z,74.44
2023-03-17T03:55:44.282Z,74.73
2023-03-17T03:58:12.336Z,74.96
2023-03-17T04:00:40.655Z,75.08
2023-03-17T04:03:09.841Z,74.97
2023-03-17T04:05:37.734Z,74.98
2023-03-17T04:08:06.720Z,75.23
2023-03-17T04:10:35.082Z,75.27
2023-03-17T04:13:03.001Z,75.61
2023-03-17T04:15:30.732Z,75.30
2023-03-17T04:17:58.497Z,75.34
2023-03-17T04:20:27.756Z,75.17
2023-03-17T04:22:55.532Z,75.32
2023-03-17T04:25:23.307Z,75.17
2023-03-17T04:27:51.047Z,75.26
2023-03-17T04:30:19.116Z,75.24
2023-03-17T04:32:47.626Z,75.22
2023-03-17T04:35:17.120Z,75.40
2023-03-17T04:37:46.736Z,75.50
2023-03-17T04:40:15.607Z,75.51
2023-03-17T04:42:43.385Z,75.42
2023-03-17T04:45:14.072Z,75.72
2023-03-17T04:47:42.127Z,75.80
2023-03-17T04:50:11.447Z,75.79
2023-03-17T04:52:39.203Z,76.02
2023-03-17T04:55:09.475Z,76.26
2023-03-17T04:57:37.815Z,76.07
2023-03-17T05:00:07.274Z,75.88
2023-03-17T05:02:35.360Z,76.27
2023-03-17T05:05:03.168Z,76.21
2023-03-17T05:07:33.928Z,76.35
2023-03-17T05:10:02.128Z,76.29
2023-03-17T05:12:31.199Z,76.34
2023-03-17T05:14:58.900Z,76.44
2023-03-17T05:17:26.579Z,76.37
2023-03-17T05:19:54.299Z,76.30
2023-03-17T05:22:22.054Z,76.28
2023-03-17T05:24:49.749Z,76.28
2023-03-17T05:27:17.479Z,76.52
2023-03-17T05:29:46.574Z,76.54
2023-03-17T05:32:14.464Z,76.53
2023-03-17T05:34:42.173Z,76.68
2023-03-17T05:37:10.278Z,76.62
2023-03-17T05:39:38.409Z,76.68
2023-03-17T05:42:06.380Z,76.72
2023-03-17T05:44:34.225Z,77.09
2023-03-17T05:47:03.292Z,77.23
2023-03-17T05:49:31.507Z,77.15
2023-03-17T05:51:59.261Z,77.06
2023-03-17T05:54:27.676Z,76.94
2023-03-17T05:56:55.474Z,76.89
2023-03-17T05:59:23.324Z,77.10
2023-03-17T06:01:51.278Z,77.35
2023-03-17T06:04:20.376Z,77.51
2023-03-17T06:06:48.609Z,77.82
2023-03-17T06:09:18.101Z,78.15
2023-03-17T06:11:45.929Z,78.57
2023-03-17T06:14:14.601Z,78.87
2023-03-17T06:16:42.333Z,79.03
2023-03-17T06:19:10.271Z,79.62
2023-03-17T06:21:39.500Z,79.93
2023-03-17T06:24:08.437Z,80.04
2023-03-17T06:26:37.199Z,79.74
2023-03-17T06:29:05.409Z,80.01
2023-03-17T06:31:33.118Z,79.65
2023-03-17T06:34:00.906Z,79.85
2023-03-17T06:36:28.586Z,79.75
2023-03-17T06:38:57.868Z,79.40
2023-03-17T06:41:25.715Z,79.13
2023-03-17T06:43:53.512Z,78.73
2023-03-17T06:46:21.625Z,77.91
2023-03-17T06:48:49.442Z,77.79
2023-03-17T06:51:17.222Z,76.95
2023-03-17T06:53:44.980Z,76.71
2023-03-17T06:56:28.806Z,75.95
2023-03-17T06:58:57.760Z,74.61
2023-03-17T07:01:25.766Z,74.25
2023-03-17T07:03:53.485Z,72.97
2023-03-17T07:06:23.377Z,72.28
2023-03-17T07:08:52.377Z,71.51
2023-03-17T07:11:23.581Z,70.42
2023-03-17T07:13:51.994Z,69.41
2023-03-17T07:16:21.043Z,69.73
2023-03-17T07:18:50.616Z,68.40
2023-03-17T07:21:18.623Z,68.32
2023-03-17T07:23:46.411Z,68.79
2023-03-17T07:26:14.581Z,68.24
2023-03-17T07:28:44.623Z,68.06
2023-03-17T07:31:14.335Z,68.50
2023-03-17T07:33:42.556Z,68.47
2023-03-17T07:36:10.712Z,68.52
2023-03-17T07:38:38.566Z,68.37
2023-03-17T07:41:09.910Z,67.62
2023-03-17T07:43:38.581Z,67.14
2023-03-17T07:46:08.573Z,66.74
2023-03-17T07:48:40.840Z,65.96
2023-03-17T07:51:11.890Z,64.37
2023-03-17T07:53:39.706Z,62.60
2023-03-17T07:56:08.078Z,62.65
2023-03-17T07:58:36.121Z,62.55
2023-03-17T08:01:04.992Z,61.50
2023-03-17T08:03:34.410Z,61.05
2023-03-17T08:06:08.618Z,60.32
2023-03-17T08:08:37.011Z,59.02
2023-03-17T08:11:07.639Z,58.05
2023-03-17T08:13:35.827Z,57.38
2023-03-17T08:16:03.699Z,56.75
2023-03-17T08:18:32.028Z,56.20
2023-03-17T08:21:02.150Z,55.52
2023-03-17T08:23:30.047Z,55.29
2023-03-17T08:25:58.895Z,54.92
2023-03-17T08:28:27.139Z,54.36
2023-03-17T08:30:55.857Z,53.04
2023-03-17T08:33:23.780Z,52.92
2023-03-17T08:35:51.652Z,52.53
2023-03-17T08:38:20.786Z,52.16
2023-03-17T08:40:50.606Z,50.83
2023-03-17T08:43:18.677Z,51.22
2023-03-17T08:45:46.555Z,50.24
2023-03-17T08:48:14.382Z,49.88
2023-03-17T08:50:42.266Z,50.54
2023-03-17T08:53:10.361Z,51.16
2023-03-17T08:55:39.953Z,51.05
2023-03-17T08:58:07.766Z,51.03
2023-03-17T09:00:36.240Z,51.57
2023-03-17T09:03:04.168Z,50.97
2023-03-17T09:05:32.687Z,50.56
2023-03-17T09:08:00.959Z,51.33
2023-03-17T09:10:29.220Z,51.79
2023-03-17T09:13:03.162Z,51.96
2023-03-17T09:15:31.408Z,52.24
2023-03-17T09:17:59.306Z,52.33
2023-03-17T09:20:27.279Z,52.41
2023-03-17T09:22:56.437Z,52.65
2023-03-17T09:25:24.701Z,54.17
2023-03-17T09:27:52.700Z,53.59
2023-03-17T09:30:22.102Z,53.49
2023-03-17T09:32:49.942Z,53.01
2023-03-17T09:35:17.936Z,52.67
2023-03-17T09:37:45.623Z,52.23
2023-03-17T09:40:17.585Z,51.11
2023-03-17T09:42:58.196Z,50.64
2023-03-17T09:45:34.660Z,49.75
2023-03-17T09:48:23.754Z,49.01
2023-03-17T09:50:57.579Z,49.01
2023-03-17T09:53:34.277Z,47.29
2023-03-17T09:56:06.861Z,45.71
2023-03-17T09:58:35.608Z,45.38
2023-03-17T10:01:06.403Z,45.03
2023-03-17T10:03:35.229Z,44.82
2023-03-17T10:06:18.671Z,45.22
2023-03-17T10:08:55.067Z,44.95
2023-03-17T10:11:34.026Z,45.20
2023-03-17T10:14:04.527Z,44.20
2023-03-17T10:16:41.505Z,44.40
2023-03-17T10:19:22.373Z,44.29
2023-03-17T10:21:54.764Z,44.44
2023-03-17T10:24:24.507Z,44.35
2023-03-17T10:26:55.247Z,44.44
2023-03-17T10:29:24.865Z,44.05
2023-03-17T10:31:58.292Z,43.68
2023-03-17T10:34:29.752Z,43.40
2023-03-17T10:37:02.582Z,43.75
2023-03-17T10:39:32.717Z,43.86
2023-03-17T10:42:10.075Z,44.12
2023-03-17T10:44:43.885Z,44.23
2023-03-17T10:47:31.578Z,43.59
2023-03-17T10:50:04.767Z,43.48
2023-03-17T10:52:39.605Z,43.21
2023-03-17T10:55:10.640Z,42.93
2023-03-17T10:57:39.821Z,44.21
2023-03-17T11:00:19.873Z,43.79
2023-03-17T11:02:55.964Z,43.21
2023-03-17T11:05:26.534Z,43.35
2023-03-17T11:08:07.738Z,43.24
2023-03-17T11:10:38.583Z,42.46
2023-03-17T11:13:06.714Z,42.81
2023-03-17T11:15:37.522Z,42.82
2023-03-17T11:18:15.760Z,43.30
2023-03-17T11:20:51.182Z,43.59
2023-03-17T11:23:39.574Z,43.00
2023-03-17T11:26:18.943Z,43.54
2023-03-17T11:28:52.945Z,43.67
2023-03-17T11:31:27.984Z,43.92
2023-03-17T11:34:05.369Z,43.97
2023-03-17T11:36:46.045Z,44.37
2023-03-17T11:39:17.199Z,44.47
2023-03-17T11:42:06.924Z,45.14
2023-03-17T11:45:18.204Z,44.56
2023-03-17T11:48:00.960Z,45.14
2023-03-17T11:50:38.359Z,45.57
2023-03-17T11:53:18.829Z,45.47
2023-03-17T11:55:50.172Z,45.53
2023-03-17T11:58:28.587Z,45.25
2023-03-17T12:01:00.406Z,45.48
2023-03-17T12:03:34.430Z,45.29
2023-03-17T12:06:08.666Z,45.17
2023-03-17T12:08:40.927Z,44.67
2023-03-17T12:11:12.765Z,45.53
2023-03-17T12:13:45.552Z,45.54
2023-03-17T12:16:19.299Z,45.25
2023-03-17T12:18:55.825Z,45.13
2023-03-17T12:21:30.993Z,44.82
2023-03-17T12:24:03.035Z,44.80
2023-03-17T12:26:36.209Z,45.27
2023-03-17T12:29:10.487Z,45.26
2023-03-17T12:31:42.525Z,45.56
2023-03-17T12:34:20.377Z,45.78
2023-03-17T12:36:50.717Z,45.89
2023-03-17T12:39:22.944Z,45.65
2023-03-17T12:42:16.612Z,45.02
2023-03-17T12:45:15.974Z,45.80
2023-03-17T12:47:58.554Z,45.66
2023-03-17T12:50:45.934Z,44.80
2023-03-17T12:53:27.356Z,44.39
2023-03-17T12:55:58.938Z,44.09
2023-03-17T12:58:33.600Z,43.88
2023-03-17T13:01:10.747Z,43.89
2023-03-17T13:03:47.772Z,44.64
2023-03-17T13:06:21.258Z,43.87
2023-03-17T13:08:51.976Z,43.58
2023-03-17T13:11:27.312Z,44.31
2023-03-17T13:14:12.326Z,44.98
2023-03-17T13:16:41.799Z,45.69
2023-03-17T13:19:18.801Z,46.07
2023-03-17T13:21:51.848Z,46.33
2023-03-17T13:24:43.488Z,46.48
2023-03-17T13:27:13.901Z,46.60
2023-03-17T13:29:47.717Z,47.00
2023-03-17T13:32:39.729Z,46.87
2023-03-17T13:35:38.742Z,46.98
2023-03-17T13:38:30.509Z,47.11
2023-03-17T13:41:17.199Z,46.52
2023-03-17T13:44:03.151Z,46.60
2023-03-17T13:46:40.929Z,46.60
2023-03-17T13:49:22.460Z,45.86
2023-03-17T13:51:59.825Z,46.00
2023-03-17T13:54:34.312Z,46.33
2023-03-17T13:57:26.264Z,46.17
2023-03-17T14:00:17.725Z,46.67
2023-03-17T14:02:49.809Z,46.49
2023-03-17T14:05:25.439Z,46.95
2023-03-17T14:07:57.520Z,47.33
2023-03-17T14:10:27.418Z,47.28
2023-03-17T14:13:01.907Z,47.51
2023-03-17T14:15:33.827Z,47.69
2023-03-17T14:18:05.945Z,46.51
2023-03-17T14:20:33.853Z,47.00
2023-03-17T14:23:04.035Z,47.38
2023-03-17T14:25:34.955Z,47.82
2023-03-17T14:28:09.420Z,47.43
2023-03-17T14:30:38.686Z,47.53
2023-03-17T14:33:14.559Z,47.55
2023-03-17T14:35:44.294Z,47.80
2023-03-17T14:38:20.850Z,47.86
2023-03-17T14:40:49.086Z,47.93
2023-03-17T14:43:18.463Z,48.40
2023-03-17T14:45:51.370Z,48.80
2023-03-17T14:48:26.591Z,49.18
2023-03-17T14:50:56.463Z,48.50
2023-03-17T14:53:26.827Z,48.38
2023-03-17T14:55:54.788Z,49.24
2023-03-17T14:58:26.316Z,49.78
2023-03-17T15:00:58.357Z,49.78
2023-03-17T15:03:31.564Z,49.63
2023-03-17T15:06:08.635Z,50.33
2023-03-17T15:08:46.969Z,52.00
2023-03-17T15:11:21.346Z,52.59
2023-03-17T15:13:54.005Z,52.88
2023-03-17T15:16:23.874Z,53.25
2023-03-17T15:18:59.129Z,53.28
2023-03-17T15:21:33.653Z,53.19
2023-03-17T15:24:06.207Z,53.20
2023-03-17T15:26:34.034Z,53.78
2023-03-17T15:29:03.196Z,54.80
2023-03-17T15:31:31.075Z,54.71
2023-03-17T15:33:59.585Z,54.79
2023-03-17T15:36:32.764Z,54.49
2023-03-17T15:39:01.585Z,54.49
2023-03-17T15:41:29.693Z,54.61
2023-03-17T15:43:57.543Z,54.82
2023-03-17T15:46:31.009Z,55.36
2023-03-17T15:48:59.257Z,55.07
2023-03-17T15:51:27.748Z,54.32
2023-03-17T15:53:55.462Z,54.09
2023-03-17T15:56:23.286Z,53.86
2023-03-17T15:58:52.686Z,53.60
2023-03-17T16:01:21.483Z,53.43
2023-03-17T16:03:51.079Z,52.85
2023-03-17T16:06:21.441Z,52.39
2023-03-17T16:08:50.075Z,53.48
2023-03-17T16:11:19.520Z,53.98
2023-03-17T16:13:48.653Z,54.40
2023-03-17T16:16:21.421Z,54.51
2023-03-17T16:18:52.602Z,54.24
2023-03-17T16:21:21.340Z,54.73
2023-03-17T16:23:50.428Z,55.54
2023-03-17T16:26:18.568Z,56.13
2023-03-17T16:28:47.809Z,56.95
2023-03-17T16:31:25.203Z,58.01
2023-03-17T16:33:55.224Z,57.89
2023-03-17T16:36:25.534Z,57.96
2023-03-17T16:38:53.474Z,57.55
2023-03-17T16:41:24.087Z,57.99
2023-03-17T16:43:55.266Z,57.71
2023-03-17T16:46:23.725Z,57.32
2023-03-17T16:48:51.909Z,57.58
2023-03-17T16:51:21.200Z,57.52
2023-03-17T16:53:49.462Z,58.23
2023-03-17T16:56:19.535Z,57.99
2023-03-17T16:58:48.246Z,58.17
2023-03-17T17:01:19.302Z,58.63
2023-03-17T17:03:47.834Z,58.41
2023-03-17T17:06:16.274Z,58.29
2023-03-17T17:08:47.253Z,58.48
2023-03-17T17:11:16.077Z,58.67
2023-03-17T17:13:44.926Z,58.75
2023-03-17T17:16:22.059Z,58.78
2023-03-17T17:18:50.405Z,59.09
2023-03-17T17:21:18.274Z,58.90
2023-03-17T17:23:47.834Z,59.00
2023-03-17T17:26:15.945Z,59.07
2023-03-17T17:28:43.801Z,59.67
2023-03-17T17:31:12.293Z,59.61
2023-03-17T17:33:40.704Z,59.86
2023-03-17T17:36:14.606Z,59.86
2023-03-17T17:38:44.506Z,59.94
2023-03-17T17:41:17.022Z,59.92
2023-03-17T17:43:46.174Z,59.94
2023-03-17T17:46:17.612Z,60.16
2023-03-17T17:48:45.889Z,60.57
2023-03-17T17:51:13.805Z,60.36
2023-03-17T17:53:42.010Z,60.98
2023-03-17T17:56:15.815Z,61.09
2023-03-17T17:58:44.171Z,61.56
2023-03-17T18:01:13.599Z,61.76
2023-03-17T18:03:42.962Z,62.14
2023-03-17T18:06:11.727Z,62.60
2023-03-17T18:08:40.507Z,62.83
2023-03-17T18:11:08.732Z,62.76
2023-03-17T18:13:39.040Z,63.37
2023-03-17T18:16:09.974Z,63.88
2023-03-17T18:18:40.681Z,63.62
2023-03-17T18:21:08.551Z,63.60
2023-03-17T18:23:37.344Z,63.50
2023-03-17T18:26:06.673Z,63.84
2023-03-17T18:28:34.904Z,63.71
2023-03-17T18:31:09.596Z,63.58
2023-03-17T18:33:37.776Z,63.54
2023-03-17T18:36:06.797Z,63.47
2023-03-17T18:38:34.782Z,63.79
2023-03-17T18:41:04.083Z,64.08
2023-03-17T18:43:31.930Z,63.89
2023-03-17T18:46:00.129Z,63.91
2023-03-17T18:48:29.622Z,64.10
2023-03-17T18:50:57.742Z,64.23
2023-03-17T18:53:26.116Z,64.75
2023-03-17T18:55:54.042Z,65.67
2023-03-17T18:58:23.530Z,66.49
2023-03-17T19:00:53.318Z,66.56
2023-03-17T19:03:21.397Z,67.24
2023-03-17T19:05:51.613Z,67.32
2023-03-17T19:08:19.781Z,67.82
2023-03-17T19:10:48.277Z,68.37
2023-03-17T19:13:17.034Z,68.72
2023-03-17T19:15:44.817Z,69.09
2023-03-17T19:18:12.602Z,69.87
2023-03-17T19:20:40.903Z,69.93
2023-03-17T19:23:10.126Z,70.57
2023-03-17T19:25:38.083Z,70.29
2023-03-17T19:28:06.419Z,70.70
2023-03-17T19:30:34.868Z,70.94
2023-03-17T19:33:03.057Z,71.31
2023-03-17T19:35:30.922Z,71.80
2023-03-17T19:37:59.010Z,71.55
2023-03-17T19:40:28.388Z,71.69
2023-03-17T19:42:56.269Z,72.13
2023-03-17T19:45:26.132Z,72.17
2023-03-17T19:47:54.290Z,72.00
2023-03-17T19:50:22.132Z,72.80
2023-03-17T19:52:53.020Z,73.30
2023-03-17T19:55:21.726Z,73.56
2023-03-17T19:57:51.732Z,73.25
2023-03-17T20:00:20.966Z,72.84
2023-03-17T20:02:52.114Z,72.94
2023-03-17T20:05:20.019Z,73.78
2023-03-17T20:07:48.390Z,75.32
2023-03-17T20:10:16.160Z,76.17
2023-03-17T20:12:45.935Z,76.35
2023-03-17T20:15:16.464Z,76.94
2023-03-17T20:17:44.293Z,77.27
2023-03-17T20:20:14.517Z,77.05
2023-03-17T20:22:43.668Z,76.34
2023-03-17T20:25:12.492Z,76.97
2023-03-17T20:27:43.577Z,77.63
2023-03-17T20:30:13.152Z,77.84
2023-03-17T20:32:42.547Z,77.96
2023-03-17T20:35:11.130Z,77.34
2023-03-17T20:37:39.517Z,78.45
2023-03-17T20:40:09.934Z,78.65
2023-03-17T20:42:37.774Z,78.76
2023-03-17T20:45:07.463Z,78.13
2023-03-17T20:47:35.535Z,78.42
2023-03-17T20:50:06.282Z,78.58
2023-03-17T20:52:34.099Z,78.07
2023-03-17T20:55:02.565Z,78.85
2023-03-17T20:57:30.377Z,79.84
2023-03-17T20:59:58.240Z,80.29
2023-03-17T21:02:26.445Z,80.40
2023-03-17T21:04:54.249Z,80.69
2023-03-17T21:07:23.613Z,80.30
2023-03-17T21:09:52.020Z,80.69
2023-03-17T21:12:21.382Z,80.15
2023-03-17T21:14:49.349Z,80.34
2023-03-17T21:17:18.370Z,80.48
2023-03-17T21:19:47.413Z,80.43
2023-03-17T21:22:16.056Z,80.24
2023-03-17T21:24:45.342Z,80.03
2023-03-17T21:27:13.843Z,80.46
2023-03-17T21:29:41.687Z,79.84
2023-03-17T21:32:09.689Z,79.79
2023-03-17T21:34:38.091Z,79.43
2023-03-17T21:37:06.181Z,79.95
2023-03-17T21:39:34.064Z,80.33
2023-03-17T21:42:03.793Z,79.94
2023-03-17T21:44:32.414Z,80.11
2023-03-17T21:47:02.591Z,80.39
2023-03-17T21:49:30.404Z,81.08
2023-03-17T21:51:58.250Z,81.41
2023-03-17T21:54:26.098Z,81.22
2023-03-17T21:56:53.986Z,81.98
2023-03-17T21:59:23.600Z,82.12
2023-03-17T22:01:53.073Z,82.82
2023-03-17T22:04:21.153Z,82.26
2023-03-17T22:06:49.006Z,82.97
2023-03-17T22:09:19.134Z,82.95
2023-03-17T22:11:47.059Z,83.82
2023-03-17T22:14:19.888Z,83.69
2023-03-17T22:16:49.798Z,83.40
2023-03-17T22:19:20.983Z,83.79
2023-03-17T22:21:49.073Z,83.28
2023-03-17T22:24:17.339Z,84.00
2023-03-17T22:26:45.239Z,83.69
2023-03-17T22:29:13.593Z,83.62
2023-03-17T22:31:41.984Z,83.38
2023-03-17T22:34:11.262Z,83.35
2023-03-17T22:36:39.038Z,82.88
2023-03-17T22:39:08.836Z,83.34
2023-03-17T22:41:36.743Z,82.85
2023-03-17T22:44:05.591Z,82.39
2023-03-17T22:46:33.412Z,82.44
2023-03-17T22:49:01.218Z,81.80
2023-03-17T22:51:30.594Z,82.51
2023-03-17T22:53:58.804Z,82.61
2023-03-17T22:56:26.823Z,82.86
2023-03-17T22:58:55.757Z,82.90
2023-03-17T23:01:25.817Z,83.20
2023-03-17T23:03:54.319Z,83.31
2023-03-17T23:06:22.579Z,82.83
2023-03-17T23:08:52.203Z,83.57
2023-03-17T23:11:22.226Z,83.71
2023-03-17T23:13:51.420Z,83.45
2023-03-17T23:16:20.277Z,84.25
2023-03-17T23:18:48.117Z,84.27
2023-03-17T23:21:21.921Z,83.91
2023-03-17T23:23:51.459Z,83.94
2023-03-17T23:26:19.361Z,84.28
2023-03-17T23:28:47.604Z,84.43
2023-03-17T23:31:15.979Z,84.06
2023-03-17T23:33:43.903Z,83.94
2023-03-17T23:36:14.064Z,83.94
2023-03-17T23:38:42.739Z,84.38
2023-03-17T23:41:13.484Z,84.58
2023-03-17T23:43:41.756Z,84.65
2023-03-17T23:46:09.618Z,84.78
2023-03-17T23:48:38.058Z,84.58
2023-03-17T23:51:08.030Z,84.34
2023-03-17T23:53:35.798Z,84.63
2023-03-17T23:56:05.438Z,84.56
2023-03-17T23:58:34.896Z,84.04
